sensor_id;sensor_type;location;lat;lon;timestamp;P1;durP1;ratioP1;P2;durP2;ratioP2
71503;SDS011;59323;50.874;7.028;2022-11-11T00:01:26;11.10;;;4.30;;
71503;SDS011;59323;50.874;7.028;2022-11-11T00:03:55;13.00;;;4.80;;
71503;SDS011;59323;50.874;7.028;2022-11-11T00:06:20;17.95;;;5.40;;
71503;SDS011;59323;50.874;7.028;2022-11-11T00:08:46;13.47;;;4.60;;
71503;SDS011;59323;50.874;7.028;2022-11-11T00:11:12;11.52;;;4.50;;
71503;SDS011;59323;50.874;7.028;2022-11-11T00:13:39;13.85;;;5.18;;
71503;SDS011;59323;50.874;7.028;2022-11-11T00:16:09;13.40;;;4.87;;
71503;SDS011;59323;50.874;7.028;2022-11-11T00:18:36;13.00;;;5.00;;
71503;SDS011;59323;50.874;7.028;2022-11-11T00:21:21;13.35;;;5.32;;
71503;SDS011;59323;50.874;7.028;2022-11-11T00:24:08;13.23;;;5.25;;
71503;SDS011;59323;50.874;7.028;2022-11-11T00:27:03;11.65;;;5.03;;
71503;SDS011;59323;50.874;7.028;2022-11-11T00:29:30;15.67;;;5.00;;
71503;SDS011;59323;50.874;7.028;2022-11-11T00:31:55;9.93;;;4.15;;
71503;SDS011;59323;50.874;7.028;2022-11-11T00:34:39;16.73;;;5.32;;
71503;SDS011;59323;50.874;7.028;2022-11-11T00:37:04;11.50;;;4.70;;
71503;SDS011;59323;50.874;7.028;2022-11-11T00:39:30;16.10;;;5.20;;
71503;SDS011;59323;50.874;7.028;2022-11-11T00:41:55;14.17;;;4.70;;
71503;SDS011;59323;50.874;7.028;2022-11-11T00:44:20;12.93;;;5.20;;
71503;SDS011;59323;50.874;7.028;2022-11-11T00:46:46;12.27;;;4.97;;
71503;SDS011;59323;50.874;7.028;2022-11-11T00:49:46;12.37;;;4.80;;
71503;SDS011;59323;50.874;7.028;2022-11-11T00:52:30;14.15;;;5.30;;
71503;SDS011;59323;50.874;7.028;2022-11-11T00:54:56;14.33;;;5.10;;
71503;SDS011;59323;50.874;7.028;2022-11-11T00:57:24;14.30;;;5.53;;
71503;SDS011;59323;50.874;7.028;2022-11-11T00:59:49;14.50;;;4.83;;
71503;SDS011;59323;50.874;7.028;2022-11-11T01:02:15;14.33;;;4.77;;
71503;SDS011;59323;50.874;7.028;2022-11-11T01:04:40;17.10;;;5.20;;
71503;SDS011;59323;50.874;7.028;2022-11-11T01:07:05;13.73;;;5.40;;
71503;SDS011;59323;50.874;7.028;2022-11-11T01:09:31;17.10;;;5.38;;
71503;SDS011;59323;50.874;7.028;2022-11-11T01:11:56;13.83;;;4.90;;
71503;SDS011;59323;50.874;7.028;2022-11-11T01:14:22;10.80;;;4.77;;
71503;SDS011;59323;50.874;7.028;2022-11-11T01:16:47;14.43;;;5.20;;
71503;SDS011;59323;50.874;7.028;2022-11-11T01:19:12;13.97;;;4.80;;
71503;SDS011;59323;50.874;7.028;2022-11-11T01:21:37;13.43;;;5.32;;
71503;SDS011;59323;50.874;7.028;2022-11-11T01:24:03;19.23;;;5.23;;
71503;SDS011;59323;50.874;7.028;2022-11-11T01:26:28;13.63;;;5.00;;
71503;SDS011;59323;50.874;7.028;2022-11-11T01:28:54;13.03;;;4.83;;
71503;SDS011;59323;50.874;7.028;2022-11-11T01:31:21;12.98;;;4.40;;
71503;SDS011;59323;50.874;7.028;2022-11-11T01:33:48;12.80;;;4.60;;
71503;SDS011;59323;50.874;7.028;2022-11-11T01:36:15;13.23;;;5.23;;
71503;SDS011;59323;50.874;7.028;2022-11-11T01:38:41;14.77;;;4.63;;
71503;SDS011;59323;50.874;7.028;2022-11-11T01:41:09;13.88;;;5.03;;
71503;SDS011;59323;50.874;7.028;2022-11-11T01:43:55;15.85;;;4.43;;
71503;SDS011;59323;50.874;7.028;2022-11-11T01:48:55;13.05;;;4.75;;
71503;SDS011;59323;50.874;7.028;2022-11-11T01:54:12;12.68;;;4.47;;
71503;SDS011;59323;50.874;7.028;2022-11-11T01:56:42;14.93;;;4.32;;
71503;SDS011;59323;50.874;7.028;2022-11-11T01:59:11;11.13;;;4.45;;
71503;SDS011;59323;50.874;7.028;2022-11-11T02:01:41;13.98;;;4.78;;
71503;SDS011;59323;50.874;7.028;2022-11-11T02:04:07;12.33;;;4.57;;
71503;SDS011;59323;50.874;7.028;2022-11-11T02:06:53;10.88;;;4.07;;
71503;SDS011;59323;50.874;7.028;2022-11-11T02:09:21;13.90;;;4.43;;
71503;SDS011;59323;50.874;7.028;2022-11-11T02:11:48;13.32;;;4.93;;
71503;SDS011;59323;50.874;7.028;2022-11-11T02:14:34;12.95;;;4.30;;
71503;SDS011;59323;50.874;7.028;2022-11-11T02:17:08;13.70;;;4.50;;
71503;SDS011;59323;50.874;7.028;2022-11-11T02:25:03;12.52;;;4.43;;
71503;SDS011;59323;50.874;7.028;2022-11-11T02:27:32;11.65;;;4.32;;
71503;SDS011;59323;50.874;7.028;2022-11-11T02:30:01;16.03;;;4.63;;
71503;SDS011;59323;50.874;7.028;2022-11-11T02:32:31;13.95;;;4.53;;
71503;SDS011;59323;50.874;7.028;2022-11-11T02:34:56;12.90;;;4.65;;
71503;SDS011;59323;50.874;7.028;2022-11-11T02:37:25;16.23;;;5.40;;
71503;SDS011;59323;50.874;7.028;2022-11-11T02:39:52;13.85;;;5.22;;
71503;SDS011;59323;50.874;7.028;2022-11-11T02:42:24;14.17;;;4.87;;
71503;SDS011;59323;50.874;7.028;2022-11-11T02:44:49;13.70;;;5.30;;
71503;SDS011;59323;50.874;7.028;2022-11-11T02:47:14;12.40;;;4.87;;
71503;SDS011;59323;50.874;7.028;2022-11-11T02:49:40;14.93;;;5.30;;
71503;SDS011;59323;50.874;7.028;2022-11-11T02:52:05;16.30;;;4.80;;
71503;SDS011;59323;50.874;7.028;2022-11-11T02:54:31;14.35;;;4.95;;
71503;SDS011;59323;50.874;7.028;2022-11-11T02:56:56;14.60;;;5.17;;
71503;SDS011;59323;50.874;7.028;2022-11-11T02:59:38;14.27;;;4.85;;
71503;SDS011;59323;50.874;7.028;2022-11-11T03:02:04;15.17;;;5.20;;
71503;SDS011;59323;50.874;7.028;2022-11-11T03:04:30;15.73;;;5.43;;
71503;SDS011;59323;50.874;7.028;2022-11-11T03:06:56;12.80;;;5.53;;
71503;SDS011;59323;50.874;7.028;2022-11-11T03:09:21;11.40;;;4.75;;
71503;SDS011;59323;50.874;7.028;2022-11-11T03:11:46;12.57;;;4.47;;
71503;SDS011;59323;50.874;7.028;2022-11-11T03:14:12;13.20;;;4.93;;
71503;SDS011;59323;50.874;7.028;2022-11-11T03:16:37;16.20;;;5.03;;
71503;SDS011;59323;50.874;7.028;2022-11-11T03:19:21;15.52;;;5.05;;
71503;SDS011;59323;50.874;7.028;2022-11-11T03:21:46;12.00;;;3.90;;
71503;SDS011;59323;50.874;7.028;2022-11-11T03:24:12;13.20;;;4.70;;
71503;SDS011;59323;50.874;7.028;2022-11-11T03:26:37;14.38;;;4.68;;
71503;SDS011;59323;50.874;7.028;2022-11-11T03:29:03;11.63;;;5.17;;
71503;SDS011;59323;50.874;7.028;2022-11-11T03:31:29;15.80;;;4.85;;
71503;SDS011;59323;50.874;7.028;2022-11-11T03:33:54;13.10;;;5.13;;
71503;SDS011;59323;50.874;7.028;2022-11-11T03:36:19;12.97;;;4.67;;
71503;SDS011;59323;50.874;7.028;2022-11-11T03:39:05;14.88;;;4.70;;
71503;SDS011;59323;50.874;7.028;2022-11-11T03:41:30;13.03;;;4.70;;
71503;SDS011;59323;50.874;7.028;2022-11-11T03:43:55;11.73;;;4.90;;
71503;SDS011;59323;50.874;7.028;2022-11-11T03:46:20;13.17;;;4.43;;
71503;SDS011;59323;50.874;7.028;2022-11-11T03:48:46;15.50;;;4.47;;
71503;SDS011;59323;50.874;7.028;2022-11-11T03:51:11;13.07;;;4.60;;
71503;SDS011;59323;50.874;7.028;2022-11-11T03:53:36;12.03;;;4.47;;
71503;SDS011;59323;50.874;7.028;2022-11-11T03:56:02;11.03;;;4.63;;
71503;SDS011;59323;50.874;7.028;2022-11-11T03:58:27;14.57;;;4.72;;
71503;SDS011;59323;50.874;7.028;2022-11-11T04:00:53;15.47;;;5.00;;
71503;SDS011;59323;50.874;7.028;2022-11-11T04:03:19;12.20;;;4.60;;
71503;SDS011;59323;50.874;7.028;2022-11-11T04:06:03;16.17;;;4.63;;
71503;SDS011;59323;50.874;7.028;2022-11-11T04:08:47;12.23;;;4.47;;
71503;SDS011;59323;50.874;7.028;2022-11-11T04:11:32;13.38;;;5.50;;
71503;SDS011;59323;50.874;7.028;2022-11-11T04:14:02;13.18;;;4.93;;
71503;SDS011;59323;50.874;7.028;2022-11-11T04:16:48;12.65;;;4.35;;
71503;SDS011;59323;50.874;7.028;2022-11-11T04:19:14;15.20;;;4.90;;
71503;SDS011;59323;50.874;7.028;2022-11-11T04:21:58;13.13;;;4.45;;
71503;SDS011;59323;50.874;7.028;2022-11-11T04:24:23;13.60;;;4.53;;
71503;SDS011;59323;50.874;7.028;2022-11-11T04:27:08;13.02;;;4.90;;
71503;SDS011;59323;50.874;7.028;2022-11-11T04:29:35;13.03;;;4.63;;
71503;SDS011;59323;50.874;7.028;2022-11-11T04:32:26;11.55;;;4.15;;
71503;SDS011;59323;50.874;7.028;2022-11-11T04:35:06;15.90;;;4.90;;
71503;SDS011;59323;50.874;7.028;2022-11-11T04:37:34;10.98;;;4.70;;
71503;SDS011;59323;50.874;7.028;2022-11-11T04:40:01;14.98;;;4.80;;
71503;SDS011;59323;50.874;7.028;2022-11-11T04:42:46;14.33;;;4.90;;
71503;SDS011;59323;50.874;7.028;2022-11-11T04:45:12;13.60;;;5.07;;
71503;SDS011;59323;50.874;7.028;2022-11-11T04:48:02;18.27;;;4.87;;
71503;SDS011;59323;50.874;7.028;2022-11-11T04:50:36;14.55;;;4.72;;
71503;SDS011;59323;50.874;7.028;2022-11-11T04:53:03;14.10;;;5.07;;
71503;SDS011;59323;50.874;7.028;2022-11-11T04:55:30;14.98;;;4.95;;
71503;SDS011;59323;50.874;7.028;2022-11-11T04:58:14;13.63;;;4.75;;
71503;SDS011;59323;50.874;7.028;2022-11-11T05:00:41;17.37;;;4.90;;
71503;SDS011;59323;50.874;7.028;2022-11-11T05:03:09;10.98;;;4.22;;
71503;SDS011;59323;50.874;7.028;2022-11-11T05:08:48;14.90;;;5.63;;
71503;SDS011;59323;50.874;7.028;2022-11-11T05:11:35;16.80;;;5.22;;
71503;SDS011;59323;50.874;7.028;2022-11-11T05:14:01;14.60;;;5.38;;
71503;SDS011;59323;50.874;7.028;2022-11-11T05:16:48;15.43;;;4.95;;
71503;SDS011;59323;50.874;7.028;2022-11-11T05:19:34;16.77;;;5.60;;
71503;SDS011;59323;50.874;7.028;2022-11-11T05:22:35;12.43;;;4.65;;
71503;SDS011;59323;50.874;7.028;2022-11-11T05:25:02;14.60;;;5.00;;
71503;SDS011;59323;50.874;7.028;2022-11-11T05:27:47;17.52;;;5.22;;
71503;SDS011;59323;50.874;7.028;2022-11-11T05:30:13;14.53;;;5.00;;
71503;SDS011;59323;50.874;7.028;2022-11-11T05:32:39;15.48;;;5.20;;
71503;SDS011;59323;50.874;7.028;2022-11-11T05:35:05;14.47;;;5.63;;
71503;SDS011;59323;50.874;7.028;2022-11-11T05:37:31;12.63;;;4.70;;
71503;SDS011;59323;50.874;7.028;2022-11-11T05:39:56;17.10;;;5.63;;
71503;SDS011;59323;50.874;7.028;2022-11-11T05:42:22;14.87;;;5.40;;
71503;SDS011;59323;50.874;7.028;2022-11-11T05:44:47;17.43;;;5.00;;
71503;SDS011;59323;50.874;7.028;2022-11-11T05:47:13;15.87;;;4.90;;
71503;SDS011;59323;50.874;7.028;2022-11-11T05:49:38;15.55;;;5.82;;
71503;SDS011;59323;50.874;7.028;2022-11-11T05:52:04;12.13;;;5.50;;
71503;SDS011;59323;50.874;7.028;2022-11-11T05:54:30;15.00;;;5.10;;
71503;SDS011;59323;50.874;7.028;2022-11-11T05:56:56;14.40;;;4.90;;
71503;SDS011;59323;50.874;7.028;2022-11-11T05:59:21;15.17;;;5.10;;
71503;SDS011;59323;50.874;7.028;2022-11-11T06:01:46;14.10;;;4.87;;
71503;SDS011;59323;50.874;7.028;2022-11-11T06:04:12;16.17;;;6.10;;
71503;SDS011;59323;50.874;7.028;2022-11-11T06:06:37;18.00;;;5.70;;
71503;SDS011;59323;50.874;7.028;2022-11-11T06:09:02;15.33;;;4.77;;
71503;SDS011;59323;50.874;7.028;2022-11-11T06:11:28;13.15;;;5.47;;
71503;SDS011;59323;50.874;7.028;2022-11-11T06:13:54;16.03;;;5.40;;
71503;SDS011;59323;50.874;7.028;2022-11-11T06:16:20;13.85;;;5.15;;
71503;SDS011;59323;50.874;7.028;2022-11-11T06:18:46;15.55;;;5.55;;
71503;SDS011;59323;50.874;7.028;2022-11-11T06:21:12;13.07;;;5.03;;
71503;SDS011;59323;50.874;7.028;2022-11-11T06:23:37;14.57;;;5.43;;
71503;SDS011;59323;50.874;7.028;2022-11-11T06:26:03;13.90;;;5.57;;
71503;SDS011;59323;50.874;7.028;2022-11-11T06:31:05;21.80;;;6.67;;
71503;SDS011;59323;50.874;7.028;2022-11-11T06:33:35;12.52;;;5.03;;
71503;SDS011;59323;50.874;7.028;2022-11-11T06:36:01;15.80;;;5.38;;
71503;SDS011;59323;50.874;7.028;2022-11-11T06:38:28;16.10;;;5.55;;
71503;SDS011;59323;50.874;7.028;2022-11-11T06:40:54;16.77;;;5.10;;
71503;SDS011;59323;50.874;7.028;2022-11-11T06:43:19;17.52;;;6.03;;
71503;SDS011;59323;50.874;7.028;2022-11-11T06:45:44;13.93;;;5.07;;
71503;SDS011;59323;50.874;7.028;2022-11-11T06:48:10;17.93;;;5.53;;
71503;SDS011;59323;50.874;7.028;2022-11-11T06:50:35;16.13;;;5.72;;
71503;SDS011;59323;50.874;7.028;2022-11-11T06:53:05;16.67;;;5.60;;
71503;SDS011;59323;50.874;7.028;2022-11-11T06:55:32;13.20;;;5.20;;
71503;SDS011;59323;50.874;7.028;2022-11-11T06:58:17;21.97;;;6.23;;
71503;SDS011;59323;50.874;7.028;2022-11-11T07:00:45;25.58;;;6.28;;
71503;SDS011;59323;50.874;7.028;2022-11-11T07:03:12;20.85;;;6.05;;
71503;SDS011;59323;50.874;7.028;2022-11-11T07:05:39;20.83;;;6.03;;
71503;SDS011;59323;50.874;7.028;2022-11-11T07:08:06;24.80;;;5.80;;
71503;SDS011;59323;50.874;7.028;2022-11-11T07:10:38;19.60;;;6.30;;
71503;SDS011;59323;50.874;7.028;2022-11-11T07:13:05;20.75;;;5.72;;
71503;SDS011;59323;50.874;7.028;2022-11-11T07:15:31;22.83;;;6.90;;
71503;SDS011;59323;50.874;7.028;2022-11-11T07:17:57;19.60;;;5.75;;
71503;SDS011;59323;50.874;7.028;2022-11-11T07:20:22;28.50;;;5.80;;
71503;SDS011;59323;50.874;7.028;2022-11-11T07:22:48;18.83;;;5.53;;
71503;SDS011;59323;50.874;7.028;2022-11-11T07:25:13;22.77;;;6.87;;
71503;SDS011;59323;50.874;7.028;2022-11-11T07:27:39;22.92;;;6.43;;
71503;SDS011;59323;50.874;7.028;2022-11-11T07:30:06;16.38;;;6.00;;
71503;SDS011;59323;50.874;7.028;2022-11-11T07:32:32;21.77;;;6.33;;
71503;SDS011;59323;50.874;7.028;2022-11-11T07:34:58;18.83;;;6.50;;
71503;SDS011;59323;50.874;7.028;2022-11-11T07:37:23;23.02;;;6.60;;
71503;SDS011;59323;50.874;7.028;2022-11-11T07:39:49;19.23;;;6.80;;
71503;SDS011;59323;50.874;7.028;2022-11-11T07:42:14;21.73;;;6.43;;
71503;SDS011;59323;50.874;7.028;2022-11-11T07:44:39;18.07;;;7.03;;
71503;SDS011;59323;50.874;7.028;2022-11-11T07:47:05;16.90;;;5.50;;
71503;SDS011;59323;50.874;7.028;2022-11-11T07:49:31;20.47;;;6.37;;
71503;SDS011;59323;50.874;7.028;2022-11-11T07:51:56;19.23;;;6.18;;
71503;SDS011;59323;50.874;7.028;2022-11-11T07:54:22;17.67;;;6.83;;
71503;SDS011;59323;50.874;7.028;2022-11-11T07:56:47;16.90;;;6.00;;
71503;SDS011;59323;50.874;7.028;2022-11-11T07:59:12;14.43;;;5.50;;
71503;SDS011;59323;50.874;7.028;2022-11-11T08:01:38;19.52;;;6.18;;
71503;SDS011;59323;50.874;7.028;2022-11-11T08:04:03;18.87;;;5.97;;
71503;SDS011;59323;50.874;7.028;2022-11-11T08:06:29;18.17;;;5.77;;
71503;SDS011;59323;50.874;7.028;2022-11-11T08:08:54;29.57;;;6.27;;
71503;SDS011;59323;50.874;7.028;2022-11-11T08:11:19;23.47;;;6.60;;
71503;SDS011;59323;50.874;7.028;2022-11-11T08:14:05;18.52;;;5.88;;
71503;SDS011;59323;50.874;7.028;2022-11-11T08:16:30;15.37;;;5.03;;
71503;SDS011;59323;50.874;7.028;2022-11-11T08:18:55;21.08;;;5.82;;
71503;SDS011;59323;50.874;7.028;2022-11-11T08:21:22;18.10;;;5.70;;
71503;SDS011;59323;50.874;7.028;2022-11-11T08:23:48;25.10;;;5.60;;
71503;SDS011;59323;50.874;7.028;2022-11-11T08:26:13;23.43;;;6.23;;
71503;SDS011;59323;50.874;7.028;2022-11-11T08:28:39;44.72;;;7.53;;
71503;SDS011;59323;50.874;7.028;2022-11-11T08:31:04;21.90;;;6.10;;
71503;SDS011;59323;50.874;7.028;2022-11-11T08:33:30;19.07;;;6.03;;
71503;SDS011;59323;50.874;7.028;2022-11-11T08:35:57;22.45;;;5.75;;
71503;SDS011;59323;50.874;7.028;2022-11-11T08:38:23;19.42;;;5.72;;
71503;SDS011;59323;50.874;7.028;2022-11-11T08:40:52;18.93;;;5.23;;
71503;SDS011;59323;50.874;7.028;2022-11-11T08:43:18;16.35;;;5.72;;
71503;SDS011;59323;50.874;7.028;2022-11-11T08:45:47;15.02;;;5.00;;
71503;SDS011;59323;50.874;7.028;2022-11-11T08:48:16;15.02;;;5.75;;
71503;SDS011;59323;50.874;7.028;2022-11-11T08:50:41;15.07;;;5.67;;
71503;SDS011;59323;50.874;7.028;2022-11-11T08:53:07;14.90;;;5.07;;
71503;SDS011;59323;50.874;7.028;2022-11-11T08:55:33;13.57;;;5.05;;
71503;SDS011;59323;50.874;7.028;2022-11-11T08:58:00;13.30;;;5.85;;
71503;SDS011;59323;50.874;7.028;2022-11-11T09:00:28;13.97;;;5.53;;
71503;SDS011;59323;50.874;7.028;2022-11-11T09:02:54;12.75;;;4.60;;
71503;SDS011;59323;50.874;7.028;2022-11-11T09:05:24;12.93;;;5.28;;
71503;SDS011;59323;50.874;7.028;2022-11-11T09:07:49;15.27;;;5.30;;
71503;SDS011;59323;50.874;7.028;2022-11-11T09:10:14;15.10;;;5.73;;
71503;SDS011;59323;50.874;7.028;2022-11-11T09:12:40;13.90;;;5.60;;
71503;SDS011;59323;50.874;7.028;2022-11-11T09:15:05;12.57;;;5.00;;
71503;SDS011;59323;50.874;7.028;2022-11-11T09:17:31;11.53;;;5.00;;
71503;SDS011;59323;50.874;7.028;2022-11-11T09:19:56;13.50;;;5.20;;
71503;SDS011;59323;50.874;7.028;2022-11-11T09:22:21;12.97;;;4.90;;
71503;SDS011;59323;50.874;7.028;2022-11-11T09:24:47;11.82;;;4.40;;
71503;SDS011;59323;50.874;7.028;2022-11-11T09:27:12;12.93;;;4.80;;
71503;SDS011;59323;50.874;7.028;2022-11-11T09:29:37;11.20;;;4.87;;
71503;SDS011;59323;50.874;7.028;2022-11-11T09:32:03;14.60;;;5.43;;
71503;SDS011;59323;50.874;7.028;2022-11-11T09:34:28;14.87;;;4.77;;
71503;SDS011;59323;50.874;7.028;2022-11-11T09:36:56;12.70;;;4.55;;
71503;SDS011;59323;50.874;7.028;2022-11-11T09:39:21;15.27;;;5.53;;
71503;SDS011;59323;50.874;7.028;2022-11-11T09:41:58;14.80;;;5.27;;
71503;SDS011;59323;50.874;7.028;2022-11-11T09:47:34;13.68;;;4.90;;
71503;SDS011;59323;50.874;7.028;2022-11-11T09:50:15;13.13;;;4.30;;
71503;SDS011;59323;50.874;7.028;2022-11-11T10:00:45;11.70;;;4.32;;
71503;SDS011;59323;50.874;7.028;2022-11-11T10:03:17;11.60;;;4.22;;
71503;SDS011;59323;50.874;7.028;2022-11-11T10:05:53;11.70;;;4.15;;
71503;SDS011;59323;50.874;7.028;2022-11-11T10:11:21;14.10;;;3.95;;
71503;SDS011;59323;50.874;7.028;2022-11-11T10:13:53;9.38;;;3.83;;
71503;SDS011;59323;50.874;7.028;2022-11-11T10:21:48;10.97;;;3.93;;
71503;SDS011;59323;50.874;7.028;2022-11-11T10:24:20;13.27;;;3.80;;
71503;SDS011;59323;50.874;7.028;2022-11-11T10:27:01;10.70;;;3.97;;
71503;SDS011;59323;50.874;7.028;2022-11-11T10:29:36;11.15;;;3.92;;
71503;SDS011;59323;50.874;7.028;2022-11-11T10:32:24;11.32;;;3.85;;
71503;SDS011;59323;50.874;7.028;2022-11-11T10:34:51;10.07;;;3.77;;
71503;SDS011;59323;50.874;7.028;2022-11-11T10:37:18;10.25;;;4.18;;
71503;SDS011;59323;50.874;7.028;2022-11-11T10:39:59;14.35;;;3.85;;
71503;SDS011;59323;50.874;7.028;2022-11-11T10:42:47;9.25;;;3.95;;
71503;SDS011;59323;50.874;7.028;2022-11-11T10:45:16;10.90;;;3.87;;
71503;SDS011;59323;50.874;7.028;2022-11-11T10:50:29;9.20;;;3.70;;
71503;SDS011;59323;50.874;7.028;2022-11-11T10:53:46;10.30;;;3.67;;
71503;SDS011;59323;50.874;7.028;2022-11-11T10:56:05;11.10;;;3.33;;
71503;SDS011;59323;50.874;7.028;2022-11-11T10:58:46;10.43;;;3.28;;
71503;SDS011;59323;50.874;7.028;2022-11-11T11:01:28;9.65;;;3.78;;
71503;SDS011;59323;50.874;7.028;2022-11-11T11:04:17;10.73;;;3.30;;
71503;SDS011;59323;50.874;7.028;2022-11-11T11:06:57;9.60;;;3.00;;
71503;SDS011;59323;50.874;7.028;2022-11-11T11:09:29;9.23;;;2.92;;
71503;SDS011;59323;50.874;7.028;2022-11-11T11:14:53;9.02;;;3.17;;
71503;SDS011;59323;50.874;7.028;2022-11-11T11:17:30;8.00;;;2.60;;
71503;SDS011;59323;50.874;7.028;2022-11-11T11:22:51;7.47;;;2.28;;
71503;SDS011;59323;50.874;7.028;2022-11-11T11:25:20;8.45;;;2.35;;
71503;SDS011;59323;50.874;7.028;2022-11-11T11:27:46;6.55;;;1.88;;
71503;SDS011;59323;50.874;7.028;2022-11-11T11:30:15;6.05;;;2.10;;
71503;SDS011;59323;50.874;7.028;2022-11-11T11:32:59;10.17;;;2.47;;
71503;SDS011;59323;50.874;7.028;2022-11-11T11:35:39;6.90;;;2.08;;
71503;SDS011;59323;50.874;7.028;2022-11-11T11:38:08;9.48;;;2.67;;
71503;SDS011;59323;50.874;7.028;2022-11-11T11:43:30;9.95;;;2.30;;
71503;SDS011;59323;50.874;7.028;2022-11-11T11:56:37;7.15;;;2.20;;
71503;SDS011;59323;50.874;7.028;2022-11-11T12:05:16;7.63;;;2.13;;
71503;SDS011;59323;50.874;7.028;2022-11-11T12:16:42;6.95;;;1.70;;
71503;SDS011;59323;50.874;7.028;2022-11-11T12:19:51;8.47;;;2.17;;
71503;SDS011;59323;50.874;7.028;2022-11-11T12:28:01;4.60;;;1.40;;
71503;SDS011;59323;50.874;7.028;2022-11-11T12:30:35;5.35;;;1.58;;
71503;SDS011;59323;50.874;7.028;2022-11-11T12:38:26;4.20;;;1.17;;
71503;SDS011;59323;50.874;7.028;2022-11-11T12:44:09;6.72;;;1.67;;
71503;SDS011;59323;50.874;7.028;2022-11-11T12:55:23;3.70;;;1.27;;
71503;SDS011;59323;50.874;7.028;2022-11-11T12:58:07;5.68;;;1.33;;
71503;SDS011;59323;50.874;7.028;2022-11-11T13:00:59;5.82;;;1.27;;
71503;SDS011;59323;50.874;7.028;2022-11-11T13:15:21;7.75;;;1.50;;
71503;SDS011;59323;50.874;7.028;2022-11-11T13:17:48;5.97;;;1.40;;
71503;SDS011;59323;50.874;7.028;2022-11-11T13:20:38;6.23;;;1.73;;
71503;SDS011;59323;50.874;7.028;2022-11-11T13:23:09;5.53;;;1.30;;
71503;SDS011;59323;50.874;7.028;2022-11-11T13:25:36;5.68;;;1.38;;
71503;SDS011;59323;50.874;7.028;2022-11-11T13:28:12;5.55;;;1.20;;
71503;SDS011;59323;50.874;7.028;2022-11-11T13:33:21;7.67;;;1.33;;
71503;SDS011;59323;50.874;7.028;2022-11-11T13:35:55;4.97;;;1.30;;
71503;SDS011;59323;50.874;7.028;2022-11-11T13:41:12;5.78;;;1.60;;
71503;SDS011;59323;50.874;7.028;2022-11-11T13:43:47;3.88;;;1.10;;
71503;SDS011;59323;50.874;7.028;2022-11-11T13:49:07;4.20;;;1.20;;
71503;SDS011;59323;50.874;7.028;2022-11-11T13:51:44;4.70;;;1.30;;
71503;SDS011;59323;50.874;7.028;2022-11-11T13:54:20;7.87;;;1.43;;
71503;SDS011;59323;50.874;7.028;2022-11-11T13:56:49;6.47;;;1.50;;
71503;SDS011;59323;50.874;7.028;2022-11-11T13:59:20;5.40;;;1.45;;
71503;SDS011;59323;50.874;7.028;2022-11-11T14:02:11;4.97;;;1.10;;
71503;SDS011;59323;50.874;7.028;2022-11-11T14:18:49;6.10;;;1.30;;
71503;SDS011;59323;50.874;7.028;2022-11-11T14:21:00;3.53;;;1.30;;
71503;SDS011;59323;50.874;7.028;2022-11-11T14:41:44;4.67;;;1.23;;
71503;SDS011;59323;50.874;7.028;2022-11-11T14:55:18;3.87;;;1.10;;
71503;SDS011;59323;50.874;7.028;2022-11-11T15:03:11;8.85;;;1.65;;
71503;SDS011;59323;50.874;7.028;2022-11-11T15:06:04;4.28;;;1.30;;
71503;SDS011;59323;50.874;7.028;2022-11-11T15:08:37;5.13;;;1.20;;
71503;SDS011;59323;50.874;7.028;2022-11-11T15:17:20;5.13;;;1.35;;
71503;SDS011;59323;50.874;7.028;2022-11-11T15:20:16;5.97;;;1.15;;
71503;SDS011;59323;50.874;7.028;2022-11-11T15:31:01;6.28;;;1.40;;
71503;SDS011;59323;50.874;7.028;2022-11-11T15:33:44;6.50;;;1.88;;
71503;SDS011;59323;50.874;7.028;2022-11-11T15:36:32;6.40;;;1.50;;
71503;SDS011;59323;50.874;7.028;2022-11-11T15:39:10;7.17;;;1.30;;
71503;SDS011;59323;50.874;7.028;2022-11-11T15:41:40;5.20;;;1.50;;
71503;SDS011;59323;50.874;7.028;2022-11-11T15:44:15;5.35;;;1.20;;
71503;SDS011;59323;50.874;7.028;2022-11-11T15:46:44;5.57;;;1.70;;
71503;SDS011;59323;50.874;7.028;2022-11-11T15:49:14;7.93;;;2.38;;
71503;SDS011;59323;50.874;7.028;2022-11-11T15:52:00;7.90;;;1.87;;
71503;SDS011;59323;50.874;7.028;2022-11-11T15:54:25;7.93;;;1.67;;
71503;SDS011;59323;50.874;7.028;2022-11-11T15:56:50;5.53;;;1.37;;
71503;SDS011;59323;50.874;7.028;2022-11-11T15:59:38;7.30;;;1.83;;
71503;SDS011;59323;50.874;7.028;2022-11-11T16:02:06;9.07;;;2.33;;
71503;SDS011;59323;50.874;7.028;2022-11-11T16:04:38;5.38;;;1.77;;
71503;SDS011;59323;50.874;7.028;2022-11-11T16:07:19;6.35;;;2.00;;
71503;SDS011;59323;50.874;7.028;2022-11-11T16:09:47;5.75;;;1.70;;
71503;SDS011;59323;50.874;7.028;2022-11-11T16:12:15;6.97;;;1.80;;
71503;SDS011;59323;50.874;7.028;2022-11-11T16:14:43;6.40;;;1.80;;
71503;SDS011;59323;50.874;7.028;2022-11-11T16:17:11;6.00;;;1.95;;
71503;SDS011;59323;50.874;7.028;2022-11-11T16:19:38;5.93;;;1.67;;
71503;SDS011;59323;50.874;7.028;2022-11-11T16:22:10;5.28;;;1.80;;
71503;SDS011;59323;50.874;7.028;2022-11-11T16:24:39;8.35;;;2.20;;
71503;SDS011;59323;50.874;7.028;2022-11-11T16:27:10;7.82;;;2.08;;
71503;SDS011;59323;50.874;7.028;2022-11-11T16:29:39;8.25;;;2.10;;
71503;SDS011;59323;50.874;7.028;2022-11-11T16:34:49;5.15;;;1.85;;
71503;SDS011;59323;50.874;7.028;2022-11-11T16:37:16;9.65;;;2.60;;
71503;SDS011;59323;50.874;7.028;2022-11-11T16:39:42;6.55;;;2.20;;
71503;SDS011;59323;50.874;7.028;2022-11-11T16:42:16;8.80;;;2.17;;
71503;SDS011;59323;50.874;7.028;2022-11-11T16:44:55;7.90;;;2.25;;
71503;SDS011;59323;50.874;7.028;2022-11-11T16:50:16;6.20;;;1.90;;
71503;SDS011;59323;50.874;7.028;2022-11-11T16:52:54;6.95;;;2.35;;
71503;SDS011;59323;50.874;7.028;2022-11-11T16:57:54;10.05;;;3.97;;
71503;SDS011;59323;50.874;7.028;2022-11-11T17:00:21;9.82;;;3.13;;
71503;SDS011;59323;50.874;7.028;2022-11-11T17:08:37;9.67;;;3.90;;
71503;SDS011;59323;50.874;7.028;2022-11-11T17:11:06;9.57;;;3.00;;
71503;SDS011;59323;50.874;7.028;2022-11-11T17:13:33;8.10;;;2.55;;
71503;SDS011;59323;50.874;7.028;2022-11-11T17:16:05;11.55;;;3.20;;
71503;SDS011;59323;50.874;7.028;2022-11-11T17:18:41;9.98;;;3.20;;
71503;SDS011;59323;50.874;7.028;2022-11-11T17:21:06;8.80;;;2.50;;
71503;SDS011;59323;50.874;7.028;2022-11-11T17:23:32;8.93;;;3.33;;
71503;SDS011;59323;50.874;7.028;2022-11-11T17:25:58;7.72;;;2.53;;
71503;SDS011;59323;50.874;7.028;2022-11-11T17:28:25;9.00;;;2.53;;
71503;SDS011;59323;50.874;7.028;2022-11-11T17:30:51;10.32;;;2.90;;
71503;SDS011;59323;50.874;7.028;2022-11-11T17:33:17;6.70;;;2.40;;
71503;SDS011;59323;50.874;7.028;2022-11-11T17:35:52;9.63;;;2.77;;
71503;SDS011;59323;50.874;7.028;2022-11-11T17:38:18;6.63;;;2.28;;
71503;SDS011;59323;50.874;7.028;2022-11-11T17:40:44;8.18;;;2.50;;
71503;SDS011;59323;50.874;7.028;2022-11-11T17:43:11;10.10;;;2.90;;
71503;SDS011;59323;50.874;7.028;2022-11-11T17:45:36;9.80;;;2.60;;
71503;SDS011;59323;50.874;7.028;2022-11-11T17:48:01;9.37;;;2.50;;
71503;SDS011;59323;50.874;7.028;2022-11-11T17:50:27;9.45;;;2.70;;
71503;SDS011;59323;50.874;7.028;2022-11-11T17:52:55;6.93;;;2.10;;
71503;SDS011;59323;50.874;7.028;2022-11-11T17:55:21;10.35;;;2.83;;
71503;SDS011;59323;50.874;7.028;2022-11-11T17:57:47;6.00;;;2.30;;
71503;SDS011;59323;50.874;7.028;2022-11-11T18:00:12;7.53;;;2.50;;
71503;SDS011;59323;50.874;7.028;2022-11-11T18:02:39;8.60;;;2.78;;
71503;SDS011;59323;50.874;7.028;2022-11-11T18:05:04;6.87;;;2.43;;
71503;SDS011;59323;50.874;7.028;2022-11-11T18:07:29;7.18;;;2.53;;
71503;SDS011;59323;50.874;7.028;2022-11-11T18:09:55;7.93;;;2.70;;